»·PEaware :: SWA3448 KSJC-KBUR

SWA3448 :: KSJC-KBUR

FLIGHT INFORMATION

Flight Status: Arrived
Operator:
Southwest Airlines
More flights by this operator :: More flights under this callsign
Pilot: Anonymous 18910 (18910)
Aircraft: BOEING 737-200
(B732)
More flights by this aircraft type
Origin: KSJC Mineta San Jose Intl
United States
Destination: KBUR Bob Hope-Burbank
United States
More flights between these airports :: More routes between these airports
Route: +SJC2 MOONY AVE FIM FERN7
File this flight plan on PilotEdge
Remarks:
Altitude:
(Current/Filed)
31,000ft
Speed:
(Current/Filed)
400kts
Departed: 21-Jul-19 03:10 PM
Arrived: 21-Jul-19 04:03 PM
Distance/Time
Traveled:
258nm/0:53
Distance/Time
To Go:
Arrived

Flight Plot

Page will automatically refresh every two minutes.


Map Options




Map Legend


Flown Route
Filed Route
Departure Airport
Arrival Airport
Navaid (VOR, NDB)
Fix

Horizontal Profiles

Position Reports

Time Latitude Longitude Heading Altitude Ground
Speed
21-Jul-19 14:47 37.363455 -121.923797 47 55ft 0kts
21-Jul-19 14:48 37.363455 -121.923797 47 55ft 0kts
21-Jul-19 14:49 37.363455 -121.923797 47 55ft 0kts
21-Jul-19 14:50 37.363455 -121.923797 47 55ft 0kts
21-Jul-19 14:51 37.363455 -121.923797 47 55ft 0kts
21-Jul-19 14:52 37.363455 -121.923797 47 55ft 0kts
21-Jul-19 14:53 37.363455 -121.923797 47 55ft 0kts
21-Jul-19 14:54 37.363455 -121.923797 47 55ft 0kts
21-Jul-19 14:55 37.363455 -121.923797 47 55ft 0kts
21-Jul-19 14:56 37.363455 -121.923797 48 55ft 0kts
21-Jul-19 14:57 37.363455 -121.923797 47 55ft 0kts
21-Jul-19 14:58 37.363454 -121.923797 48 55ft 0kts
21-Jul-19 14:59 37.363454 -121.923797 48 55ft 0kts
21-Jul-19 15:00 37.363454 -121.923797 48 55ft 0kts
21-Jul-19 15:01 37.363255 -121.924077 47 55ft 2kts
21-Jul-19 15:02 37.363264 -121.924713 136 55ft 0kts
21-Jul-19 15:03 37.363317 -121.924768 139 55ft 0kts
21-Jul-19 15:04 37.363317 -121.924768 139 55ft 0kts
21-Jul-19 15:05 37.363248 -121.924694 139 55ft 3kts
21-Jul-19 15:06 37.360062 -121.921179 139 55ft 18kts
21-Jul-19 15:07 37.356331 -121.917069 138 55ft 17kts
21-Jul-19 15:08 37.353201 -121.914247 212 55ft 8kts
21-Jul-19 15:09 37.358045 -121.921626 319 55ft 121kts
21-Jul-19 15:10 37.398779 -121.962191 339 2671ft 214kts
21-Jul-19 15:11 37.443408 -121.914878 89 4682ft 279kts
21-Jul-19 15:12 37.400780 -121.847039 144 6557ft 241kts
21-Jul-19 15:13 37.347936 -121.796136 139 8462ft 243kts
21-Jul-19 15:14 37.298656 -121.737837 138 10826ft 244kts
21-Jul-19 15:15 37.248200 -121.682718 139 13483ft 237kts
21-Jul-19 15:16 37.196705 -121.624857 139 15545ft 252kts
21-Jul-19 15:17 37.143127 -121.564533 139 17678ft 257kts
21-Jul-19 15:18 37.088895 -121.503442 138 19458ft 267kts
21-Jul-19 15:19 37.029216 -121.439049 141 21321ft 289kts
21-Jul-19 15:20 36.968216 -121.370689 134 23314ft 302kts
21-Jul-19 15:21 36.910669 -121.293208 150 25126ft 305kts
21-Jul-19 15:22 36.839386 -121.235946 145 26791ft 313kts
21-Jul-19 15:23 36.772169 -121.163367 142 28273ft 323kts
21-Jul-19 15:24 36.703080 -121.089184 142 29535ft 332kts
21-Jul-19 15:25 36.631790 -121.012938 142 30649ft 342kts
21-Jul-19 15:26 36.556975 -120.933101 142 30977ft 372kts
21-Jul-19 15:27 36.474230 -120.845029 142 31002ft 409kts
21-Jul-19 15:28 36.384565 -120.749835 142 30997ft 435kts
21-Jul-19 15:29 36.290338 -120.650172 142 30978ft 452kts
21-Jul-19 15:30 36.193515 -120.548046 141 30964ft 462kts
21-Jul-19 15:31 36.094667 -120.444143 141 30960ft 467kts
21-Jul-19 15:32 35.996990 -120.341933 142 30936ft 472kts
21-Jul-19 15:33 35.900124 -120.240292 142 30938ft 475kts
21-Jul-19 15:34 35.808295 -120.145874 142 30952ft 464kts
21-Jul-19 15:35 35.709200 -120.043223 142 30941ft 445kts
21-Jul-19 15:36 35.615105 -119.949651 148 30944ft 425kts
21-Jul-19 15:37 35.518721 -119.868178 147 29740ft 419kts
21-Jul-19 15:38 35.430569 -119.776851 149 28522ft 410kts
21-Jul-19 15:39 35.324262 -119.764699 169 27749ft 380kts
21-Jul-19 15:40 35.240286 -119.683731 137 26203ft 396kts
21-Jul-19 15:41 35.164700 -119.589208 139 25058ft 392kts
21-Jul-19 15:42 35.079897 -119.503969 148 23223ft 397kts
21-Jul-19 15:43 34.985150 -119.436210 153 21042ft 393kts
21-Jul-19 15:44 34.900145 -119.365935 142 19627ft 373kts
21-Jul-19 15:45 34.823431 -119.295033 146 18326ft 354kts
21-Jul-19 15:46 34.750152 -119.229849 146 16995ft 344kts
21-Jul-19 15:47 34.675046 -119.162968 146 15426ft 312kts
21-Jul-19 15:48 34.607477 -119.102983 146 13681ft 302kts
21-Jul-19 15:49 34.539998 -119.043169 145 12126ft 303kts
21-Jul-19 15:50 34.472414 -118.983339 145 11038ft 293kts
21-Jul-19 15:51 34.408281 -118.926701 145 11029ft 280kts
21-Jul-19 15:52 34.344583 -118.870574 145 10317ft 278kts
21-Jul-19 15:53 34.301937 -118.799393 92 8901ft 281kts
21-Jul-19 15:54 34.301092 -118.706197 91 7375ft 266kts
21-Jul-19 15:55 34.307489 -118.618303 83 6268ft 255kts
21-Jul-19 15:56 34.315587 -118.538057 84 4984ft 218kts
21-Jul-19 15:57 34.318315 -118.471028 95 4077ft 179kts
21-Jul-19 15:58 34.306557 -118.416272 118 3487ft 167kts
21-Jul-19 15:59 34.274269 -118.378681 158 2773ft 146kts
21-Jul-19 16:00 34.237424 -118.367362 165 1552ft 130kts
21-Jul-19 16:01 34.203098 -118.357902 167 786ft 95kts
21-Jul-19 16:02 34.195936 -118.355597 30 786ft 0kts
21-Jul-19 16:03 34.196728 -118.355544 346 786ft 10kts
21-Jul-19 16:04 34.197187 -118.352948 90 786ft 11kts
21-Jul-19 16:06 34.196804 -118.351952 178 786ft 0kts
21-Jul-19 16:07 34.196805 -118.351952 178 786ft 0kts
21-Jul-19 16:08 34.196805 -118.351952 178 786ft 0kts

Navigation Log

Ident Type
Flight plan parsing failed, navigation log unavailable